RYG weather

Moss Airport, Rygge
Oslo, Østfold, Norway

Public forecast

Using degrees Celsius for public forecast. Weather courtesy of forecast.io.

Current aviation weather report (METAR) for Moss Airport, Rygge

Retrieved 2019/10/24 03:20 UTC (37 minutes ago):

ENRY 240320Z AUTO 18006KT 9999NDV FEW031/// OVC044/// 10/07 Q1010

Aviation forecast (TAF) for Moss Airport, Rygge

Retrieved 2019-10-24 00:57 UTC (3 hours ago):

TAF ENRY 232300Z 2400/2424 20012KT 9999 FEW010 BKN040 BECMG 2406/2408 BKN008 TEMPO 2406/2424 4000 DZ BR BKN003